createdAt,value
2023-01-17T00:01:50.365Z,83.95
2023-01-17T00:04:36.189Z,83.94
2023-01-17T00:07:21.608Z,83.23
2023-01-17T00:09:54.709Z,82.84
2023-01-17T00:12:22.587Z,82.58
2023-01-17T00:14:49.654Z,82.05
2023-01-17T00:17:16.883Z,81.94
2023-01-17T00:20:02.247Z,82.23
2023-01-17T00:22:50.122Z,82.19
2023-01-17T00:25:38.782Z,81.65
2023-01-17T00:28:06.090Z,81.69
2023-01-17T00:30:33.565Z,81.63
2023-01-17T00:33:01.809Z,81.79
2023-01-17T00:35:31.249Z,81.85
2023-01-17T00:38:07.216Z,81.90
2023-01-17T00:40:36.118Z,81.85
2023-01-17T00:43:22.187Z,81.59
2023-01-17T00:46:07.926Z,81.20
2023-01-17T00:48:54.390Z,80.68
2023-01-17T00:51:40.973Z,81.86
2023-01-17T00:54:26.955Z,83.10
2023-01-17T00:57:13.244Z,82.40
2023-01-17T00:59:58.756Z,82.21
2023-01-17T01:02:44.787Z,81.73
2023-01-17T01:05:32.366Z,82.23
2023-01-17T01:08:18.459Z,82.12
2023-01-17T01:11:05.068Z,82.01
2023-01-17T01:13:51.456Z,81.75
2023-01-17T01:16:38.057Z,81.95
2023-01-17T01:19:35.400Z,81.34
2023-01-17T01:22:20.886Z,81.76
2023-01-17T01:25:06.362Z,81.65
2023-01-17T01:27:52.056Z,81.15
2023-01-17T01:30:37.586Z,81.19
2023-01-17T01:33:21.610Z,80.91
2023-01-17T01:35:54.054Z,81.12
2023-01-17T01:38:23.666Z,81.12
2023-01-17T01:40:53.358Z,81.09
2023-01-17T01:43:42.785Z,81.27
2023-01-17T01:46:13.379Z,81.58
2023-01-17T01:49:06.177Z,81.82
2023-01-17T01:51:43.300Z,81.96
2023-01-17T01:54:25.859Z,82.33
2023-01-17T01:56:54.779Z,82.30
2023-01-17T01:59:23.414Z,82.35
2023-01-17T02:01:53.206Z,82.46
2023-01-17T02:04:21.688Z,82.76
2023-01-17T02:06:53.946Z,82.97
2023-01-17T02:09:20.952Z,83.15
2023-01-17T02:11:50.275Z,82.69
2023-01-17T02:14:22.048Z,83.29
2023-01-17T02:17:09.708Z,83.29
2023-01-17T02:19:52.217Z,83.33
2023-01-17T02:22:40.632Z,83.07
2023-01-17T02:25:10.700Z,83.37
2023-01-17T02:27:53.095Z,83.50
2023-01-17T02:30:52.086Z,83.11
2023-01-17T02:33:33.774Z,85.09
2023-01-17T02:36:44.704Z,85.11
2023-01-17T02:39:38.085Z,85.13
2023-01-17T02:42:10.277Z,85.43
2023-01-17T02:44:44.465Z,85.03
2023-01-17T02:47:26.660Z,84.64
2023-01-17T02:50:03.539Z,84.69
2023-01-17T02:52:55.736Z,84.36
2023-01-17T02:55:41.081Z,83.92
2023-01-17T02:58:39.760Z,83.90
2023-01-17T03:01:35.012Z,84.12
2023-01-17T03:04:12.895Z,83.92
2023-01-17T03:06:56.744Z,84.12
2023-01-17T03:09:25.669Z,83.76
2023-01-17T03:11:53.104Z,83.81
2023-01-17T03:14:20.458Z,84.11
2023-01-17T03:16:47.719Z,84.34
2023-01-17T03:19:17.395Z,84.18
2023-01-17T03:21:44.351Z,84.61
2023-01-17T03:24:11.279Z,85.13
2023-01-17T03:26:38.273Z,85.33
2023-01-17T03:29:05.224Z,84.92
2023-01-17T03:31:32.210Z,85.10
2023-01-17T03:33:59.220Z,84.99
2023-01-17T03:36:26.102Z,85.65
2023-01-17T03:38:53.148Z,85.19
2023-01-17T03:41:20.185Z,85.14
2023-01-17T03:43:47.235Z,85.24
2023-01-17T03:46:23.507Z,85.40
2023-01-17T03:48:51.071Z,85.63
2023-01-17T03:51:19.085Z,85.84
2023-01-17T03:53:52.132Z,85.88
2023-01-17T03:56:19.277Z,85.98
2023-01-17T03:58:46.097Z,86.26
2023-01-17T04:01:13.519Z,85.96
2023-01-17T04:03:40.819Z,85.83
2023-01-17T04:06:07.833Z,87.53
2023-01-17T04:08:34.907Z,88.38
2023-01-17T04:11:02.364Z,88.36
2023-01-17T04:13:29.731Z,88.34
2023-01-17T04:15:56.785Z,88.33
2023-01-17T04:18:24.612Z,87.65
2023-01-17T04:20:51.749Z,87.14
2023-01-17T04:23:19.170Z,86.60
2023-01-17T04:25:48.103Z,86.84
2023-01-17T04:28:15.133Z,87.12
2023-01-17T04:30:42.179Z,87.33
2023-01-17T04:33:09.241Z,87.15
2023-01-17T04:35:36.315Z,86.92
2023-01-17T04:38:03.352Z,87.09
2023-01-17T04:40:30.321Z,87.15
2023-01-17T04:42:58.319Z,88.31
2023-01-17T04:45:25.536Z,88.26
2023-01-17T04:47:52.598Z,88.05
2023-01-17T04:50:19.835Z,87.97
2023-01-17T04:52:46.739Z,87.94
2023-01-17T04:55:13.843Z,87.47
2023-01-17T04:57:40.790Z,86.87
2023-01-17T05:00:08.626Z,86.82
2023-01-17T05:02:35.619Z,86.88
2023-01-17T05:05:02.588Z,86.88
2023-01-17T05:07:30.472Z,86.73
2023-01-17T05:09:57.777Z,86.44
2023-01-17T05:12:24.681Z,86.44
2023-01-17T05:14:51.689Z,86.37
2023-01-17T05:17:18.940Z,86.24
2023-01-17T05:19:46.359Z,85.91
2023-01-17T05:22:17.193Z,86.21
2023-01-17T05:24:46.452Z,86.00
2023-01-17T05:27:14.730Z,86.03
2023-01-17T05:29:41.856Z,85.89
2023-01-17T05:32:08.806Z,85.75
2023-01-17T05:34:35.789Z,85.87
2023-01-17T05:37:02.673Z,86.24
2023-01-17T05:39:31.081Z,86.48
2023-01-17T05:41:59.266Z,86.31
2023-01-17T05:44:27.709Z,86.09
2023-01-17T05:46:55.911Z,86.34
2023-01-17T05:49:23.023Z,86.28
2023-01-17T05:51:50.166Z,86.46
2023-01-17T05:54:17.206Z,86.41
2023-01-17T05:56:46.792Z,86.45
2023-01-17T05:59:17.249Z,86.57
2023-01-17T06:01:46.489Z,86.56
2023-01-17T06:04:13.848Z,86.23
2023-01-17T06:06:40.866Z,86.25
2023-01-17T06:09:07.871Z,86.46
2023-01-17T06:11:34.889Z,86.24
2023-01-17T06:14:01.743Z,85.77
2023-01-17T06:16:29.869Z,84.93
2023-01-17T06:18:56.867Z,84.48
2023-01-17T06:21:23.913Z,84.40
2023-01-17T06:23:50.897Z,84.31
2023-01-17T06:26:17.889Z,84.27
2023-01-17T06:28:44.843Z,83.98
2023-01-17T06:31:11.920Z,83.83
2023-01-17T06:33:38.916Z,84.82
2023-01-17T06:36:06.543Z,84.90
2023-01-17T06:38:33.555Z,84.78
2023-01-17T06:41:04.388Z,84.27
2023-01-17T06:43:33.757Z,84.60
2023-01-17T06:46:01.594Z,85.03
2023-01-17T06:48:28.713Z,84.99
2023-01-17T06:50:57.563Z,85.15
2023-01-17T06:53:24.748Z,85.03
2023-01-17T06:55:52.613Z,85.45
2023-01-17T06:58:19.498Z,85.42
2023-01-17T07:00:46.609Z,84.34
2023-01-17T07:03:22.177Z,84.09
2023-01-17T07:05:50.134Z,83.88
2023-01-17T07:08:18.131Z,83.57
2023-01-17T07:10:49.250Z,83.45
2023-01-17T07:13:16.457Z,83.32
2023-01-17T07:15:43.564Z,82.92
2023-01-17T07:18:10.412Z,82.93
2023-01-17T07:20:38.547Z,82.40
2023-01-17T07:23:06.781Z,82.26
2023-01-17T07:25:33.811Z,82.07
2023-01-17T07:28:00.762Z,81.62
2023-01-17T07:30:27.991Z,81.46
2023-01-17T07:32:55.757Z,81.05
2023-01-17T07:35:26.756Z,81.04
2023-01-17T07:37:54.704Z,80.90
2023-01-17T07:40:23.441Z,80.30
2023-01-17T07:42:50.381Z,79.38
2023-01-17T07:45:17.727Z,78.86
2023-01-17T07:47:45.218Z,78.53
2023-01-17T07:50:13.685Z,77.86
2023-01-17T07:52:41.178Z,77.23
2023-01-17T07:55:09.720Z,76.45
2023-01-17T07:57:36.757Z,76.03
2023-01-17T08:00:05.161Z,75.28
2023-01-17T08:02:39.480Z,74.97
2023-01-17T08:05:06.844Z,74.55
2023-01-17T08:07:34.006Z,73.57
2023-01-17T08:10:01.590Z,72.35
2023-01-17T08:12:29.681Z,71.27
2023-01-17T08:14:56.755Z,71.04
2023-01-17T08:17:23.820Z,70.12
2023-01-17T08:19:52.200Z,69.78
2023-01-17T08:22:19.253Z,68.85
2023-01-17T08:24:46.247Z,68.28
2023-01-17T08:27:13.379Z,67.37
2023-01-17T08:29:46.861Z,66.94
2023-01-17T08:32:15.186Z,66.26
2023-01-17T08:34:42.455Z,65.15
2023-01-17T08:37:09.671Z,65.62
2023-01-17T08:39:36.787Z,64.89
2023-01-17T08:42:03.945Z,64.11
2023-01-17T08:44:31.187Z,62.95
2023-01-17T08:46:58.387Z,62.57
2023-01-17T08:49:25.533Z,61.98
2023-01-17T08:51:52.788Z,61.80
2023-01-17T08:54:19.951Z,61.47
2023-01-17T08:56:47.649Z,61.59
2023-01-17T08:59:14.824Z,60.79
2023-01-17T09:01:46.233Z,60.58
2023-01-17T09:04:15.149Z,60.15
2023-01-17T09:06:45.344Z,59.93
2023-01-17T09:09:13.962Z,59.15
2023-01-17T09:11:41.144Z,59.17
2023-01-17T09:14:08.155Z,58.15
2023-01-17T09:16:35.278Z,58.58
2023-01-17T09:19:02.405Z,58.11
2023-01-17T09:21:29.417Z,57.65
2023-01-17T09:23:56.473Z,57.52
2023-01-17T09:26:28.794Z,57.15
2023-01-17T09:28:56.908Z,56.78
2023-01-17T09:31:24.944Z,56.65
2023-01-17T09:33:53.388Z,57.04
2023-01-17T09:36:22.947Z,57.32
2023-01-17T09:38:55.385Z,58.29
2023-01-17T09:41:30.009Z,56.17
2023-01-17T09:44:02.927Z,56.68
2023-01-17T09:46:33.704Z,56.89
2023-01-17T09:49:17.871Z,56.85
2023-01-17T09:51:46.255Z,56.34
2023-01-17T09:54:23.025Z,56.41
2023-01-17T09:57:03.179Z,56.34
2023-01-17T10:00:02.983Z,56.85
2023-01-17T10:02:52.655Z,56.20
2023-01-17T10:05:44.569Z,56.48
2023-01-17T10:08:28.890Z,56.58
2023-01-17T10:11:19.363Z,55.98
2023-01-17T10:13:55.512Z,56.26
2023-01-17T10:16:32.019Z,56.81
2023-01-17T10:19:33.229Z,56.74
2023-01-17T10:22:15.646Z,55.84
2023-01-17T10:25:01.337Z,56.61
2023-01-17T10:27:34.118Z,55.99
2023-01-17T10:30:23.503Z,56.36
2023-01-17T10:32:50.808Z,56.98
2023-01-17T10:35:22.934Z,56.53
2023-01-17T10:37:56.719Z,56.39
2023-01-17T10:40:43.032Z,56.44
2023-01-17T10:43:44.215Z,56.61
2023-01-17T10:46:28.675Z,56.91
2023-01-17T10:48:56.851Z,56.88
2023-01-17T10:51:49.973Z,57.03
2023-01-17T10:54:36.144Z,56.73
2023-01-17T10:57:03.214Z,55.96
2023-01-17T10:59:33.597Z,56.00
2023-01-17T11:02:07.124Z,55.04
2023-01-17T11:04:47.497Z,55.52
2023-01-17T11:07:26.292Z,54.75
2023-01-17T11:09:56.404Z,54.60
2023-01-17T11:12:35.147Z,54.27
2023-01-17T11:15:11.302Z,54.86
2023-01-17T11:17:44.839Z,55.54
2023-01-17T11:20:12.340Z,56.14
2023-01-17T11:22:39.499Z,54.17
2023-01-17T11:25:07.255Z,54.43
2023-01-17T11:27:38.561Z,54.64
2023-01-17T11:30:18.352Z,54.23
2023-01-17T11:32:55.946Z,54.05
2023-01-17T11:35:26.847Z,53.20
2023-01-17T11:38:03.144Z,53.27
2023-01-17T11:40:36.627Z,51.98
2023-01-17T11:43:14.409Z,52.85
2023-01-17T11:45:42.052Z,52.56
2023-01-17T11:48:09.047Z,52.49
2023-01-17T11:50:57.869Z,52.06
2023-01-17T11:53:32.255Z,52.14
2023-01-17T11:55:59.319Z,52.55
2023-01-17T11:58:27.747Z,52.36
2023-01-17T12:01:10.727Z,50.67
2023-01-17T12:03:40.765Z,51.01
2023-01-17T12:06:25.134Z,50.67
2023-01-17T12:09:12.729Z,50.52
2023-01-17T12:12:18.285Z,50.64
2023-01-17T12:15:14.589Z,51.09
2023-01-17T12:18:06.202Z,50.09
2023-01-17T12:20:46.536Z,50.10
2023-01-17T12:23:51.129Z,50.94
2023-01-17T12:26:36.960Z,51.22
2023-01-17T12:29:28.896Z,50.18
2023-01-17T12:32:34.929Z,49.83
2023-01-17T12:35:27.546Z,49.77
2023-01-17T12:38:05.023Z,50.64
2023-01-17T12:40:39.580Z,50.08
2023-01-17T12:43:24.885Z,50.19
2023-01-17T12:45:52.866Z,50.00
2023-01-17T12:48:22.548Z,49.36
2023-01-17T12:51:29.081Z,49.06
2023-01-17T12:54:19.893Z,49.05
2023-01-17T12:56:58.077Z,48.79
2023-01-17T12:59:38.124Z,48.98
2023-01-17T13:02:20.717Z,48.17
2023-01-17T13:04:59.405Z,46.94
2023-01-17T13:07:47.639Z,47.42
2023-01-17T13:10:24.128Z,47.68
2023-01-17T13:12:51.877Z,47.69
2023-01-17T13:15:25.041Z,47.59
2023-01-17T13:18:03.017Z,47.61
2023-01-17T13:20:56.480Z,47.77
2023-01-17T13:23:40.262Z,47.89
2023-01-17T13:26:25.973Z,48.44
2023-01-17T13:29:16.015Z,48.33
2023-01-17T13:31:51.835Z,48.72
2023-01-17T13:34:53.419Z,48.72
2023-01-17T13:37:50.316Z,48.07
2023-01-17T13:40:31.095Z,48.50
2023-01-17T13:43:00.162Z,48.44
2023-01-17T13:45:31.177Z,48.66
2023-01-17T13:48:18.793Z,48.44
2023-01-17T13:50:49.587Z,48.42
2023-01-17T13:53:46.488Z,48.53
2023-01-17T13:56:19.636Z,47.87
2023-01-17T13:58:54.642Z,48.15
2023-01-17T14:01:24.592Z,47.61
2023-01-17T14:03:51.936Z,47.47
2023-01-17T14:06:44.908Z,47.22
2023-01-17T14:09:23.109Z,46.90
2023-01-17T14:12:14.115Z,47.35
2023-01-17T14:14:41.917Z,47.45
2023-01-17T14:17:36.533Z,47.10
2023-01-17T14:20:06.232Z,47.48
2023-01-17T14:22:41.588Z,47.42
2023-01-17T14:25:19.658Z,47.35
2023-01-17T14:27:50.485Z,47.77
2023-01-17T14:30:18.080Z,48.09
2023-01-17T14:33:16.076Z,48.47
2023-01-17T14:35:53.172Z,48.66
2023-01-17T14:38:34.260Z,47.27
2023-01-17T14:41:11.924Z,47.66
2023-01-17T14:43:42.443Z,48.58
2023-01-17T14:46:32.267Z,49.37
2023-01-17T14:49:05.874Z,50.01
2023-01-17T14:51:35.695Z,49.36
2023-01-17T14:54:13.594Z,49.18
2023-01-17T14:56:40.569Z,48.63
2023-01-17T14:59:22.297Z,49.56
2023-01-17T15:02:07.128Z,49.33
2023-01-17T15:04:39.763Z,49.77
2023-01-17T15:07:12.663Z,49.69
2023-01-17T15:09:43.185Z,50.03
2023-01-17T15:12:16.611Z,49.82
2023-01-17T15:14:45.909Z,49.66
2023-01-17T15:17:16.261Z,50.14
2023-01-17T15:19:55.699Z,50.18
2023-01-17T15:22:23.748Z,50.08
2023-01-17T15:24:51.005Z,50.69
2023-01-17T15:27:20.033Z,50.47
2023-01-17T15:29:48.609Z,50.67
2023-01-17T15:32:31.263Z,50.58
2023-01-17T15:35:02.523Z,50.79
2023-01-17T15:37:33.426Z,51.33
2023-01-17T15:40:16.831Z,51.28
2023-01-17T15:42:46.989Z,51.52
2023-01-17T15:45:29.057Z,51.38
2023-01-17T15:47:56.185Z,51.24
2023-01-17T15:50:30.543Z,51.31
2023-01-17T15:52:57.595Z,51.69
2023-01-17T15:55:30.655Z,51.94
2023-01-17T15:57:57.753Z,52.41
2023-01-17T16:00:37.804Z,52.39
2023-01-17T16:03:20.056Z,52.34
2023-01-17T16:05:48.304Z,52.67
2023-01-17T16:08:16.409Z,53.04
2023-01-17T16:10:44.334Z,52.82
2023-01-17T16:13:12.916Z,53.36
2023-01-17T16:15:42.320Z,53.66
2023-01-17T16:18:24.625Z,53.94
2023-01-17T16:21:05.583Z,54.39
2023-01-17T16:23:32.581Z,54.50
2023-01-17T16:25:59.556Z,54.71
2023-01-17T16:28:26.560Z,55.19
2023-01-17T16:30:54.063Z,55.92
2023-01-17T16:33:21.319Z,56.67
2023-01-17T16:35:51.323Z,57.10
2023-01-17T16:38:19.907Z,57.27
2023-01-17T16:40:48.005Z,57.58
2023-01-17T16:43:17.211Z,58.02
2023-01-17T16:45:52.234Z,58.90
2023-01-17T16:48:20.381Z,58.93
2023-01-17T16:50:50.807Z,59.31
2023-01-17T16:53:26.724Z,59.31
2023-01-17T16:55:57.869Z,59.53
2023-01-17T16:58:25.275Z,59.59
2023-01-17T17:00:52.547Z,59.83
2023-01-17T17:03:21.227Z,59.80
2023-01-17T17:05:56.606Z,59.98
2023-01-17T17:08:24.299Z,59.65
2023-01-17T17:10:51.659Z,60.11
2023-01-17T17:13:18.796Z,60.16
2023-01-17T17:15:46.073Z,60.28
2023-01-17T17:18:17.852Z,60.48
2023-01-17T17:20:46.165Z,60.40
2023-01-17T17:23:13.231Z,60.76
2023-01-17T17:25:40.310Z,60.84
2023-01-17T17:28:07.350Z,60.74
2023-01-17T17:30:36.144Z,60.85
2023-01-17T17:33:04.681Z,60.90
2023-01-17T17:35:34.797Z,60.92
2023-01-17T17:38:02.009Z,60.95
2023-01-17T17:40:29.159Z,61.00
2023-01-17T17:42:56.077Z,61.14
2023-01-17T17:45:23.030Z,61.18
2023-01-17T17:47:54.438Z,61.21
2023-01-17T17:50:21.629Z,61.57
2023-01-17T17:52:49.341Z,61.32
2023-01-17T17:55:19.046Z,61.28
2023-01-17T17:57:46.518Z,61.52
2023-01-17T18:00:13.892Z,61.92
2023-01-17T18:02:40.860Z,62.22
2023-01-17T18:05:08.196Z,62.27
2023-01-17T18:07:35.452Z,62.31
2023-01-17T18:10:03.792Z,62.68
2023-01-17T18:12:30.949Z,62.82
2023-01-17T18:14:58.268Z,63.01
2023-01-17T18:17:25.194Z,62.98
2023-01-17T18:19:52.665Z,63.30
2023-01-17T18:22:19.649Z,63.73
2023-01-17T18:24:46.966Z,64.04
2023-01-17T18:27:14.255Z,64.31
2023-01-17T18:29:41.391Z,64.31
2023-01-17T18:32:08.681Z,64.31
2023-01-17T18:34:39.271Z,64.38
2023-01-17T18:37:06.282Z,64.61
2023-01-17T18:39:33.984Z,64.47
2023-01-17T18:42:01.022Z,64.55
2023-01-17T18:44:28.238Z,65.04
2023-01-17T18:46:56.024Z,64.95
2023-01-17T18:49:23.178Z,64.94
2023-01-17T18:51:51.537Z,64.89
2023-01-17T18:54:20.151Z,65.34
2023-01-17T18:56:47.266Z,66.34
2023-01-17T18:59:16.258Z,66.47
2023-01-17T19:01:43.794Z,66.25
2023-01-17T19:04:13.282Z,66.96
2023-01-17T19:06:43.019Z,67.15
2023-01-17T19:09:10.783Z,67.43
2023-01-17T19:11:38.154Z,68.44
2023-01-17T19:14:06.760Z,67.93
2023-01-17T19:16:39.631Z,67.28
2023-01-17T19:19:15.169Z,68.56
2023-01-17T19:21:42.782Z,68.51
2023-01-17T19:24:13.317Z,67.86
2023-01-17T19:26:41.101Z,67.59
2023-01-17T19:29:08.527Z,67.83
2023-01-17T19:31:43.162Z,67.83
2023-01-17T19:34:11.650Z,67.63
2023-01-17T19:36:39.315Z,67.57
2023-01-17T19:39:09.465Z,67.00
2023-01-17T19:41:42.139Z,67.21
2023-01-17T19:44:13.407Z,66.75
2023-01-17T19:46:40.557Z,63.57
2023-01-17T19:49:09.345Z,63.56
2023-01-17T19:51:40.081Z,63.64
2023-01-17T19:54:08.391Z,63.51
2023-01-17T19:56:35.515Z,63.08
2023-01-17T19:59:03.717Z,61.90
2023-01-17T20:01:32.697Z,61.20
2023-01-17T20:04:01.261Z,60.31
2023-01-17T20:06:31.069Z,60.21
2023-01-17T20:08:58.125Z,59.45
2023-01-17T20:11:27.927Z,58.66
2023-01-17T20:13:58.007Z,57.79
2023-01-17T20:16:27.278Z,57.37
2023-01-17T20:18:54.816Z,57.13
2023-01-17T20:21:24.729Z,57.23
2023-01-17T20:23:54.476Z,57.65
2023-01-17T20:26:31.680Z,57.79
2023-01-17T20:28:58.658Z,57.51
2023-01-17T20:31:26.177Z,57.09
2023-01-17T20:33:55.297Z,56.81
2023-01-17T20:36:24.826Z,56.77
2023-01-17T20:38:53.431Z,56.59
2023-01-17T20:41:23.701Z,56.54
2023-01-17T20:43:55.354Z,56.57
2023-01-17T20:46:27.297Z,56.51
2023-01-17T20:48:57.958Z,56.25
2023-01-17T20:51:27.454Z,56.93
2023-01-17T20:54:02.803Z,56.76
2023-01-17T20:56:34.634Z,56.86
2023-01-17T20:59:06.329Z,56.16
2023-01-17T21:01:34.951Z,56.38
2023-01-17T21:04:03.463Z,56.43
2023-01-17T21:06:31.422Z,55.68
2023-01-17T21:08:59.841Z,55.92
2023-01-17T21:11:27.833Z,55.73
2023-01-17T21:13:55.212Z,55.98
2023-01-17T21:16:23.195Z,56.02
2023-01-17T21:18:51.939Z,55.71
2023-01-17T21:21:24.340Z,55.72
2023-01-17T21:23:53.813Z,55.50
2023-01-17T21:26:22.875Z,55.31
2023-01-17T21:28:50.917Z,54.84
2023-01-17T21:31:25.365Z,54.75
2023-01-17T21:33:53.702Z,54.43
2023-01-17T21:36:23.245Z,54.36
2023-01-17T21:38:52.367Z,54.11
2023-01-17T21:41:25.589Z,54.38
2023-01-17T21:44:03.368Z,54.24
2023-01-17T21:46:30.862Z,54.05
2023-01-17T21:48:57.973Z,54.02
2023-01-17T21:51:45.471Z,54.19
2023-01-17T21:54:12.644Z,54.26
2023-01-17T21:56:58.241Z,54.23
2023-01-17T21:59:25.377Z,53.78
2023-01-17T22:01:52.488Z,54.20
2023-01-17T22:04:21.927Z,54.42
2023-01-17T22:06:49.011Z,54.41
2023-01-17T22:09:16.071Z,54.58
2023-01-17T22:11:43.209Z,54.33
2023-01-17T22:14:10.322Z,54.37
2023-01-17T22:16:37.320Z,54.31
2023-01-17T22:19:04.413Z,54.28
2023-01-17T22:21:32.698Z,54.09
2023-01-17T22:24:00.327Z,54.01
2023-01-17T22:26:30.329Z,54.14
2023-01-17T22:29:00.942Z,53.86
2023-01-17T22:31:28.811Z,53.10
2023-01-17T22:34:02.489Z,52.85
2023-01-17T22:36:33.875Z,53.30
2023-01-17T22:39:03.976Z,53.02
2023-01-17T22:41:32.989Z,53.49
2023-01-17T22:44:05.572Z,53.48
2023-01-17T22:46:35.759Z,53.32
2023-01-17T22:49:05.892Z,53.11
2023-01-17T22:51:33.003Z,53.13
2023-01-17T22:54:01.329Z,53.16
2023-01-17T22:56:32.089Z,53.44
2023-01-17T22:59:00.969Z,53.31
2023-01-17T23:01:33.015Z,52.99
2023-01-17T23:04:03.694Z,52.90
2023-01-17T23:06:37.093Z,52.85
2023-01-17T23:09:10.893Z,53.06
2023-01-17T23:11:42.490Z,52.95
2023-01-17T23:14:25.660Z,52.98
2023-01-17T23:17:12.811Z,52.70
2023-01-17T23:19:47.909Z,52.82
2023-01-17T23:22:24.282Z,52.80
2023-01-17T23:25:00.652Z,52.80
2023-01-17T23:27:58.569Z,52.95
2023-01-17T23:30:29.194Z,52.80
2023-01-17T23:32:59.393Z,53.12
2023-01-17T23:35:29.904Z,52.86
2023-01-17T23:38:16.319Z,52.53
2023-01-17T23:40:43.936Z,52.02
2023-01-17T23:43:23.365Z,51.97
2023-01-17T23:45:51.154Z,51.70
2023-01-17T23:48:19.142Z,52.03
2023-01-17T23:50:47.822Z,52.18
2023-01-17T23:53:24.010Z,52.26
2023-01-17T23:55:53.798Z,52.16
2023-01-17T23:58:23.982Z,52.01
